sensor_id;sensor_type;location;lat;lon;timestamp;P1;durP1;ratioP1;P2;durP2;ratioP2
15246;SDS011;7726;48.820;9.248;2023-06-22T00:01:17;9.93;;;7.97;;
15246;SDS011;7726;48.820;9.248;2023-06-22T00:03:44;8.75;;;7.80;;
15246;SDS011;7726;48.820;9.248;2023-06-22T00:06:11;8.93;;;8.02;;
15246;SDS011;7726;48.820;9.248;2023-06-22T00:08:40;10.93;;;8.45;;
15246;SDS011;7726;48.820;9.248;2023-06-22T00:11:07;8.50;;;7.68;;
15246;SDS011;7726;48.820;9.248;2023-06-22T00:13:34;9.63;;;8.65;;
15246;SDS011;7726;48.820;9.248;2023-06-22T00:16:01;9.82;;;8.43;;
15246;SDS011;7726;48.820;9.248;2023-06-22T00:18:28;9.88;;;8.23;;
15246;SDS011;7726;48.820;9.248;2023-06-22T00:20:57;9.10;;;8.20;;
15246;SDS011;7726;48.820;9.248;2023-06-22T00:23:24;11.65;;;7.68;;
15246;SDS011;7726;48.820;9.248;2023-06-22T00:25:53;9.07;;;7.45;;
15246;SDS011;7726;48.820;9.248;2023-06-22T00:28:20;9.15;;;8.18;;
15246;SDS011;7726;48.820;9.248;2023-06-22T00:30:48;9.70;;;7.80;;
15246;SDS011;7726;48.820;9.248;2023-06-22T00:33:15;10.52;;;7.97;;
15246;SDS011;7726;48.820;9.248;2023-06-22T00:35:42;8.88;;;8.13;;
15246;SDS011;7726;48.820;9.248;2023-06-22T00:38:09;9.02;;;7.82;;
15246;SDS011;7726;48.820;9.248;2023-06-22T00:40:36;8.00;;;7.28;;
15246;SDS011;7726;48.820;9.248;2023-06-22T00:43:05;10.50;;;8.32;;
15246;SDS011;7726;48.820;9.248;2023-06-22T00:45:32;13.20;;;8.38;;
15246;SDS011;7726;48.820;9.248;2023-06-22T00:48:00;8.75;;;7.95;;
15246;SDS011;7726;48.820;9.248;2023-06-22T00:50:29;11.40;;;7.82;;
15246;SDS011;7726;48.820;9.248;2023-06-22T00:52:58;14.10;;;8.13;;
15246;SDS011;7726;48.820;9.248;2023-06-22T00:55:26;9.20;;;7.88;;
15246;SDS011;7726;48.820;9.248;2023-06-22T00:57:53;8.95;;;8.10;;
15246;SDS011;7726;48.820;9.248;2023-06-22T01:00:23;9.43;;;8.43;;
15246;SDS011;7726;48.820;9.248;2023-06-22T01:02:51;8.80;;;7.55;;
15246;SDS011;7726;48.820;9.248;2023-06-22T01:05:19;9.20;;;7.75;;
15246;SDS011;7726;48.820;9.248;2023-06-22T01:07:50;9.10;;;7.85;;
15246;SDS011;7726;48.820;9.248;2023-06-22T01:10:23;9.32;;;8.43;;
15246;SDS011;7726;48.820;9.248;2023-06-22T01:12:52;9.80;;;8.25;;
15246;SDS011;7726;48.820;9.248;2023-06-22T01:15:21;8.88;;;7.47;;
15246;SDS011;7726;48.820;9.248;2023-06-22T01:17:50;9.48;;;8.27;;
15246;SDS011;7726;48.820;9.248;2023-06-22T01:20:19;9.02;;;8.07;;
15246;SDS011;7726;48.820;9.248;2023-06-22T01:22:50;8.73;;;7.88;;
15246;SDS011;7726;48.820;9.248;2023-06-22T01:25:25;9.73;;;8.82;;
15246;SDS011;7726;48.820;9.248;2023-06-22T01:27:56;9.65;;;8.73;;
15246;SDS011;7726;48.820;9.248;2023-06-22T01:30:27;9.90;;;8.18;;
15246;SDS011;7726;48.820;9.248;2023-06-22T01:32:56;9.32;;;8.32;;
15246;SDS011;7726;48.820;9.248;2023-06-22T01:35:24;9.70;;;8.65;;
15246;SDS011;7726;48.820;9.248;2023-06-22T01:37:51;10.70;;;9.60;;
15246;SDS011;7726;48.820;9.248;2023-06-22T01:40:19;8.82;;;7.95;;
15246;SDS011;7726;48.820;9.248;2023-06-22T01:42:47;10.05;;;8.60;;
15246;SDS011;7726;48.820;9.248;2023-06-22T01:45:15;11.57;;;9.20;;
15246;SDS011;7726;48.820;9.248;2023-06-22T01:47:44;9.27;;;8.38;;
15246;SDS011;7726;48.820;9.248;2023-06-22T01:50:11;11.10;;;9.00;;
15246;SDS011;7726;48.820;9.248;2023-06-22T01:52:39;9.55;;;8.57;;
15246;SDS011;7726;48.820;9.248;2023-06-22T01:55:06;10.45;;;9.35;;
15246;SDS011;7726;48.820;9.248;2023-06-22T01:57:33;9.80;;;8.90;;
15246;SDS011;7726;48.820;9.248;2023-06-22T02:00:02;10.48;;;9.35;;
15246;SDS011;7726;48.820;9.248;2023-06-22T02:02:31;10.52;;;8.93;;
15246;SDS011;7726;48.820;9.248;2023-06-22T02:05:01;9.88;;;8.88;;
15246;SDS011;7726;48.820;9.248;2023-06-22T02:07:31;11.48;;;9.18;;
15246;SDS011;7726;48.820;9.248;2023-06-22T02:09:59;14.90;;;9.60;;
15246;SDS011;7726;48.820;9.248;2023-06-22T02:12:28;12.65;;;9.25;;
15246;SDS011;7726;48.820;9.248;2023-06-22T02:14:57;10.55;;;8.85;;
15246;SDS011;7726;48.820;9.248;2023-06-22T02:17:26;11.57;;;8.98;;
15246;SDS011;7726;48.820;9.248;2023-06-22T02:19:53;9.77;;;8.68;;
15246;SDS011;7726;48.820;9.248;2023-06-22T02:22:22;10.75;;;9.38;;
15246;SDS011;7726;48.820;9.248;2023-06-22T02:24:49;10.50;;;9.38;;
15246;SDS011;7726;48.820;9.248;2023-06-22T02:27:17;10.32;;;9.27;;
15246;SDS011;7726;48.820;9.248;2023-06-22T02:29:45;10.15;;;8.43;;
15246;SDS011;7726;48.820;9.248;2023-06-22T02:32:12;11.60;;;8.88;;
15246;SDS011;7726;48.820;9.248;2023-06-22T02:34:42;9.85;;;8.73;;
15246;SDS011;7726;48.820;9.248;2023-06-22T02:37:12;11.65;;;9.45;;
15246;SDS011;7726;48.820;9.248;2023-06-22T02:39:41;11.52;;;8.80;;
15246;SDS011;7726;48.820;9.248;2023-06-22T02:42:08;11.82;;;9.35;;
15246;SDS011;7726;48.820;9.248;2023-06-22T02:44:36;11.63;;;9.63;;
15246;SDS011;7726;48.820;9.248;2023-06-22T02:47:03;10.35;;;9.35;;
15246;SDS011;7726;48.820;9.248;2023-06-22T02:49:30;13.55;;;9.52;;
15246;SDS011;7726;48.820;9.248;2023-06-22T02:51:58;14.23;;;9.35;;
15246;SDS011;7726;48.820;9.248;2023-06-22T02:54:25;11.07;;;9.00;;
15246;SDS011;7726;48.820;9.248;2023-06-22T02:56:53;13.50;;;10.00;;
15246;SDS011;7726;48.820;9.248;2023-06-22T02:59:20;11.25;;;9.82;;
15246;SDS011;7726;48.820;9.248;2023-06-22T03:01:48;13.02;;;10.00;;
15246;SDS011;7726;48.820;9.248;2023-06-22T03:04:15;15.88;;;10.20;;
15246;SDS011;7726;48.820;9.248;2023-06-22T03:06:43;16.10;;;10.05;;
15246;SDS011;7726;48.820;9.248;2023-06-22T03:09:15;10.95;;;9.10;;
15246;SDS011;7726;48.820;9.248;2023-06-22T03:11:43;13.10;;;9.90;;
15246;SDS011;7726;48.820;9.248;2023-06-22T03:14:11;10.82;;;9.48;;
15246;SDS011;7726;48.820;9.248;2023-06-22T03:16:38;12.68;;;9.30;;
15246;SDS011;7726;48.820;9.248;2023-06-22T03:19:06;13.30;;;9.50;;
15246;SDS011;7726;48.820;9.248;2023-06-22T03:21:33;10.20;;;9.15;;
15246;SDS011;7726;48.820;9.248;2023-06-22T03:24:03;10.88;;;9.02;;
15246;SDS011;7726;48.820;9.248;2023-06-22T03:26:30;13.50;;;10.52;;
15246;SDS011;7726;48.820;9.248;2023-06-22T03:28:58;12.02;;;9.10;;
15246;SDS011;7726;48.820;9.248;2023-06-22T03:31:26;10.93;;;8.98;;
15246;SDS011;7726;48.820;9.248;2023-06-22T03:33:53;13.27;;;9.77;;
15246;SDS011;7726;48.820;9.248;2023-06-22T03:36:21;13.85;;;9.50;;
15246;SDS011;7726;48.820;9.248;2023-06-22T03:38:48;10.57;;;9.50;;
15246;SDS011;7726;48.820;9.248;2023-06-22T03:41:15;10.40;;;9.23;;
15246;SDS011;7726;48.820;9.248;2023-06-22T03:43:43;16.17;;;9.57;;
15246;SDS011;7726;48.820;9.248;2023-06-22T03:46:10;14.85;;;10.00;;
15246;SDS011;7726;48.820;9.248;2023-06-22T03:48:38;11.98;;;9.57;;
15246;SDS011;7726;48.820;9.248;2023-06-22T03:51:06;12.05;;;9.80;;
15246;SDS011;7726;48.820;9.248;2023-06-22T03:53:33;12.93;;;9.70;;
15246;SDS011;7726;48.820;9.248;2023-06-22T03:56:00;14.95;;;9.93;;
15246;SDS011;7726;48.820;9.248;2023-06-22T03:58:27;15.50;;;9.63;;
15246;SDS011;7726;48.820;9.248;2023-06-22T04:00:58;11.18;;;9.77;;
15246;SDS011;7726;48.820;9.248;2023-06-22T04:03:26;10.70;;;9.60;;
15246;SDS011;7726;48.820;9.248;2023-06-22T04:05:54;13.82;;;9.80;;
15246;SDS011;7726;48.820;9.248;2023-06-22T04:08:21;12.75;;;10.05;;
15246;SDS011;7726;48.820;9.248;2023-06-22T04:10:48;13.57;;;9.75;;
15246;SDS011;7726;48.820;9.248;2023-06-22T04:13:15;12.07;;;9.52;;
15246;SDS011;7726;48.820;9.248;2023-06-22T04:15:42;11.18;;;9.73;;
15246;SDS011;7726;48.820;9.248;2023-06-22T04:18:10;16.10;;;9.90;;
15246;SDS011;7726;48.820;9.248;2023-06-22T04:20:38;11.82;;;9.52;;
15246;SDS011;7726;48.820;9.248;2023-06-22T04:23:06;17.05;;;8.98;;
15246;SDS011;7726;48.820;9.248;2023-06-22T04:25:34;10.60;;;9.23;;
15246;SDS011;7726;48.820;9.248;2023-06-22T04:28:01;13.40;;;8.88;;
15246;SDS011;7726;48.820;9.248;2023-06-22T04:30:29;12.48;;;9.02;;
15246;SDS011;7726;48.820;9.248;2023-06-22T04:32:57;10.27;;;8.85;;
15246;SDS011;7726;48.820;9.248;2023-06-22T04:35:25;12.18;;;9.52;;
15246;SDS011;7726;48.820;9.248;2023-06-22T04:37:53;11.90;;;9.02;;
15246;SDS011;7726;48.820;9.248;2023-06-22T04:40:22;13.50;;;9.05;;
15246;SDS011;7726;48.820;9.248;2023-06-22T04:42:49;10.60;;;9.07;;
15246;SDS011;7726;48.820;9.248;2023-06-22T04:45:18;12.98;;;9.40;;
15246;SDS011;7726;48.820;9.248;2023-06-22T04:47:45;12.73;;;9.50;;
15246;SDS011;7726;48.820;9.248;2023-06-22T04:50:13;10.98;;;8.85;;
15246;SDS011;7726;48.820;9.248;2023-06-22T04:52:40;10.75;;;8.45;;
15246;SDS011;7726;48.820;9.248;2023-06-22T04:55:07;11.13;;;9.18;;
15246;SDS011;7726;48.820;9.248;2023-06-22T04:57:36;10.05;;;8.50;;
15246;SDS011;7726;48.820;9.248;2023-06-22T05:00:05;11.38;;;9.25;;
15246;SDS011;7726;48.820;9.248;2023-06-22T05:02:37;11.48;;;9.00;;
15246;SDS011;7726;48.820;9.248;2023-06-22T05:05:04;10.02;;;9.07;;
15246;SDS011;7726;48.820;9.248;2023-06-22T05:07:32;12.98;;;8.43;;
15246;SDS011;7726;48.820;9.248;2023-06-22T05:09:59;10.40;;;8.70;;
15246;SDS011;7726;48.820;9.248;2023-06-22T05:12:27;11.63;;;8.93;;
15246;SDS011;7726;48.820;9.248;2023-06-22T05:14:56;9.52;;;8.27;;
15246;SDS011;7726;48.820;9.248;2023-06-22T05:17:23;12.43;;;8.73;;
15246;SDS011;7726;48.820;9.248;2023-06-22T05:19:50;13.50;;;8.35;;
15246;SDS011;7726;48.820;9.248;2023-06-22T05:22:17;10.15;;;8.10;;
15246;SDS011;7726;48.820;9.248;2023-06-22T05:24:44;9.55;;;8.55;;
15246;SDS011;7726;48.820;9.248;2023-06-22T05:27:11;9.45;;;8.43;;
15246;SDS011;7726;48.820;9.248;2023-06-22T05:29:39;9.90;;;8.55;;
15246;SDS011;7726;48.820;9.248;2023-06-22T05:32:09;8.63;;;7.47;;
15246;SDS011;7726;48.820;9.248;2023-06-22T05:34:36;14.90;;;8.05;;
15246;SDS011;7726;48.820;9.248;2023-06-22T05:37:04;11.82;;;7.15;;
15246;SDS011;7726;48.820;9.248;2023-06-22T05:39:31;9.68;;;7.47;;
15246;SDS011;7726;48.820;9.248;2023-06-22T05:41:58;7.85;;;7.00;;
15246;SDS011;7726;48.820;9.248;2023-06-22T05:44:25;9.07;;;7.18;;
15246;SDS011;7726;48.820;9.248;2023-06-22T05:46:52;7.75;;;6.90;;
15246;SDS011;7726;48.820;9.248;2023-06-22T05:49:21;9.45;;;7.25;;
15246;SDS011;7726;48.820;9.248;2023-06-22T05:51:49;8.25;;;6.88;;
15246;SDS011;7726;48.820;9.248;2023-06-22T05:54:16;7.70;;;6.80;;
15246;SDS011;7726;48.820;9.248;2023-06-22T05:56:44;9.20;;;6.93;;
15246;SDS011;7726;48.820;9.248;2023-06-22T05:59:11;7.32;;;5.95;;
15246;SDS011;7726;48.820;9.248;2023-06-22T06:01:38;7.90;;;7.05;;
15246;SDS011;7726;48.820;9.248;2023-06-22T06:04:05;9.45;;;6.70;;
15246;SDS011;7726;48.820;9.248;2023-06-22T06:06:34;9.05;;;7.20;;
15246;SDS011;7726;48.820;9.248;2023-06-22T06:09:02;8.55;;;6.75;;
15246;SDS011;7726;48.820;9.248;2023-06-22T06:11:29;7.57;;;6.88;;
15246;SDS011;7726;48.820;9.248;2023-06-22T06:13:56;8.38;;;7.57;;
15246;SDS011;7726;48.820;9.248;2023-06-22T06:16:23;7.75;;;6.80;;
15246;SDS011;7726;48.820;9.248;2023-06-22T06:18:51;7.43;;;6.75;;
15246;SDS011;7726;48.820;9.248;2023-06-22T06:21:19;9.73;;;7.10;;
15246;SDS011;7726;48.820;9.248;2023-06-22T06:23:48;9.65;;;7.10;;
15246;SDS011;7726;48.820;9.248;2023-06-22T06:26:15;7.70;;;6.57;;
15246;SDS011;7726;48.820;9.248;2023-06-22T06:28:42;8.40;;;7.28;;
15246;SDS011;7726;48.820;9.248;2023-06-22T06:31:09;13.50;;;7.45;;
15246;SDS011;7726;48.820;9.248;2023-06-22T06:33:37;8.40;;;6.88;;
15246;SDS011;7726;48.820;9.248;2023-06-22T06:36:04;7.70;;;6.78;;
15246;SDS011;7726;48.820;9.248;2023-06-22T06:38:33;6.95;;;6.25;;
15246;SDS011;7726;48.820;9.248;2023-06-22T06:41:01;7.72;;;6.10;;
15246;SDS011;7726;48.820;9.248;2023-06-22T06:43:29;7.15;;;6.45;;
15246;SDS011;7726;48.820;9.248;2023-06-22T06:45:56;6.75;;;6.05;;
15246;SDS011;7726;48.820;9.248;2023-06-22T06:48:23;7.35;;;6.65;;
15246;SDS011;7726;48.820;9.248;2023-06-22T06:50:50;7.43;;;6.63;;
15246;SDS011;7726;48.820;9.248;2023-06-22T06:53:17;9.32;;;7.30;;
15246;SDS011;7726;48.820;9.248;2023-06-22T06:55:44;10.32;;;6.20;;
15246;SDS011;7726;48.820;9.248;2023-06-22T06:58:13;6.90;;;6.20;;
15246;SDS011;7726;48.820;9.248;2023-06-22T07:00:41;7.18;;;6.43;;
15246;SDS011;7726;48.820;9.248;2023-06-22T07:03:09;8.70;;;6.40;;
15246;SDS011;7726;48.820;9.248;2023-06-22T07:05:36;7.25;;;6.25;;
15246;SDS011;7726;48.820;9.248;2023-06-22T07:08:03;7.70;;;6.13;;
15246;SDS011;7726;48.820;9.248;2023-06-22T07:10:30;7.55;;;5.78;;
15246;SDS011;7726;48.820;9.248;2023-06-22T07:12:58;6.93;;;6.18;;
15246;SDS011;7726;48.820;9.248;2023-06-22T07:15:26;6.82;;;5.57;;
15246;SDS011;7726;48.820;9.248;2023-06-22T07:17:54;9.43;;;5.70;;
15246;SDS011;7726;48.820;9.248;2023-06-22T07:20:21;7.07;;;5.80;;
15246;SDS011;7726;48.820;9.248;2023-06-22T07:22:48;6.13;;;5.43;;
15246;SDS011;7726;48.820;9.248;2023-06-22T07:25:15;7.50;;;5.40;;
15246;SDS011;7726;48.820;9.248;2023-06-22T07:27:44;7.10;;;5.50;;
15246;SDS011;7726;48.820;9.248;2023-06-22T07:30:11;8.07;;;5.78;;
15246;SDS011;7726;48.820;9.248;2023-06-22T07:32:40;6.53;;;5.68;;
15246;SDS011;7726;48.820;9.248;2023-06-22T07:35:08;7.40;;;5.40;;
15246;SDS011;7726;48.820;9.248;2023-06-22T07:37:35;5.43;;;4.70;;
15246;SDS011;7726;48.820;9.248;2023-06-22T07:40:03;8.05;;;5.35;;
15246;SDS011;7726;48.820;9.248;2023-06-22T07:42:31;9.80;;;4.97;;
15246;SDS011;7726;48.820;9.248;2023-06-22T07:44:59;5.72;;;5.20;;
15246;SDS011;7726;48.820;9.248;2023-06-22T07:47:27;5.05;;;4.55;;
15246;SDS011;7726;48.820;9.248;2023-06-22T07:49:57;6.18;;;4.82;;
15246;SDS011;7726;48.820;9.248;2023-06-22T07:52:26;5.70;;;5.13;;
15246;SDS011;7726;48.820;9.248;2023-06-22T07:54:53;7.35;;;4.90;;
15246;SDS011;7726;48.820;9.248;2023-06-22T07:57:20;7.15;;;4.95;;
15246;SDS011;7726;48.820;9.248;2023-06-22T07:59:48;7.68;;;5.32;;
15246;SDS011;7726;48.820;9.248;2023-06-22T08:02:15;6.95;;;5.05;;
15246;SDS011;7726;48.820;9.248;2023-06-22T08:04:42;10.05;;;5.13;;
15246;SDS011;7726;48.820;9.248;2023-06-22T08:07:11;6.20;;;4.75;;
15246;SDS011;7726;48.820;9.248;2023-06-22T08:09:38;5.75;;;4.90;;
15246;SDS011;7726;48.820;9.248;2023-06-22T08:12:06;6.60;;;4.43;;
15246;SDS011;7726;48.820;9.248;2023-06-22T08:14:33;7.13;;;4.63;;
15246;SDS011;7726;48.820;9.248;2023-06-22T08:17:02;5.47;;;4.43;;
15246;SDS011;7726;48.820;9.248;2023-06-22T08:19:30;6.57;;;4.40;;
15246;SDS011;7726;48.820;9.248;2023-06-22T08:21:57;4.90;;;4.35;;
15246;SDS011;7726;48.820;9.248;2023-06-22T08:24:25;7.00;;;4.85;;
15246;SDS011;7726;48.820;9.248;2023-06-22T08:26:55;7.15;;;4.65;;
15246;SDS011;7726;48.820;9.248;2023-06-22T08:29:22;6.38;;;4.50;;
15246;SDS011;7726;48.820;9.248;2023-06-22T08:31:49;7.68;;;4.80;;
15246;SDS011;7726;48.820;9.248;2023-06-22T08:34:17;7.00;;;4.90;;
15246;SDS011;7726;48.820;9.248;2023-06-22T08:36:46;6.53;;;4.88;;
15246;SDS011;7726;48.820;9.248;2023-06-22T08:39:17;6.25;;;4.47;;
15246;SDS011;7726;48.820;9.248;2023-06-22T08:41:46;6.15;;;4.28;;
15246;SDS011;7726;48.820;9.248;2023-06-22T08:44:13;8.30;;;4.97;;
15246;SDS011;7726;48.820;9.248;2023-06-22T08:46:40;11.63;;;5.53;;
15246;SDS011;7726;48.820;9.248;2023-06-22T08:49:07;6.72;;;4.68;;
15246;SDS011;7726;48.820;9.248;2023-06-22T08:51:35;5.32;;;4.43;;
15246;SDS011;7726;48.820;9.248;2023-06-22T08:54:03;5.85;;;4.72;;
15246;SDS011;7726;48.820;9.248;2023-06-22T08:56:30;6.53;;;4.60;;
15246;SDS011;7726;48.820;9.248;2023-06-22T08:58:58;5.93;;;5.25;;
15246;SDS011;7726;48.820;9.248;2023-06-22T09:01:25;6.80;;;4.50;;
15246;SDS011;7726;48.820;9.248;2023-06-22T09:03:53;10.05;;;5.18;;
15246;SDS011;7726;48.820;9.248;2023-06-22T09:06:24;8.25;;;5.03;;
15246;SDS011;7726;48.820;9.248;2023-06-22T09:08:51;6.32;;;5.05;;
15246;SDS011;7726;48.820;9.248;2023-06-22T09:11:19;6.82;;;4.70;;
15246;SDS011;7726;48.820;9.248;2023-06-22T09:13:46;8.20;;;5.57;;
15246;SDS011;7726;48.820;9.248;2023-06-22T09:16:14;6.13;;;5.28;;
15246;SDS011;7726;48.820;9.248;2023-06-22T09:18:42;7.57;;;5.68;;
15246;SDS011;7726;48.820;9.248;2023-06-22T09:21:09;6.38;;;4.82;;
15246;SDS011;7726;48.820;9.248;2023-06-22T09:23:36;6.70;;;5.05;;
15246;SDS011;7726;48.820;9.248;2023-06-22T09:26:03;7.80;;;5.32;;
15246;SDS011;7726;48.820;9.248;2023-06-22T09:28:31;11.32;;;5.60;;
15246;SDS011;7726;48.820;9.248;2023-06-22T09:30:58;5.43;;;4.75;;
15246;SDS011;7726;48.820;9.248;2023-06-22T09:33:27;7.88;;;4.85;;
15246;SDS011;7726;48.820;9.248;2023-06-22T09:35:54;5.90;;;4.85;;
15246;SDS011;7726;48.820;9.248;2023-06-22T09:38:21;6.70;;;5.15;;
15246;SDS011;7726;48.820;9.248;2023-06-22T09:40:48;10.55;;;5.43;;
15246;SDS011;7726;48.820;9.248;2023-06-22T09:43:15;10.13;;;5.13;;
15246;SDS011;7726;48.820;9.248;2023-06-22T09:45:42;8.73;;;4.75;;
15246;SDS011;7726;48.820;9.248;2023-06-22T09:48:10;8.65;;;5.53;;
15246;SDS011;7726;48.820;9.248;2023-06-22T09:50:38;9.20;;;5.32;;
15246;SDS011;7726;48.820;9.248;2023-06-22T09:53:05;7.45;;;5.95;;
15246;SDS011;7726;48.820;9.248;2023-06-22T09:55:32;11.32;;;5.82;;
15246;SDS011;7726;48.820;9.248;2023-06-22T09:57:59;9.13;;;5.53;;
15246;SDS011;7726;48.820;9.248;2023-06-22T10:00:27;8.68;;;5.35;;
15246;SDS011;7726;48.820;9.248;2023-06-22T10:02:54;8.15;;;5.35;;
15246;SDS011;7726;48.820;9.248;2023-06-22T10:05:22;10.85;;;5.25;;
15246;SDS011;7726;48.820;9.248;2023-06-22T10:07:51;10.48;;;5.40;;
15246;SDS011;7726;48.820;9.248;2023-06-22T10:10:18;8.82;;;5.10;;
15246;SDS011;7726;48.820;9.248;2023-06-22T10:12:45;7.47;;;5.18;;
15246;SDS011;7726;48.820;9.248;2023-06-22T10:15:13;8.63;;;5.03;;
15246;SDS011;7726;48.820;9.248;2023-06-22T10:17:40;7.57;;;5.75;;
15246;SDS011;7726;48.820;9.248;2023-06-22T10:20:08;8.63;;;5.20;;
15246;SDS011;7726;48.820;9.248;2023-06-22T10:22:37;7.85;;;5.55;;
15246;SDS011;7726;48.820;9.248;2023-06-22T10:25:07;9.63;;;5.78;;
15246;SDS011;7726;48.820;9.248;2023-06-22T10:27:34;8.63;;;6.18;;
15246;SDS011;7726;48.820;9.248;2023-06-22T10:30:05;6.90;;;5.22;;
15246;SDS011;7726;48.820;9.248;2023-06-22T10:32:32;7.85;;;5.15;;
15246;SDS011;7726;48.820;9.248;2023-06-22T10:34:59;12.63;;;5.82;;
15246;SDS011;7726;48.820;9.248;2023-06-22T10:37:26;7.95;;;5.78;;
15246;SDS011;7726;48.820;9.248;2023-06-22T10:39:53;8.60;;;5.60;;
15246;SDS011;7726;48.820;9.248;2023-06-22T10:42:22;6.07;;;5.07;;
15246;SDS011;7726;48.820;9.248;2023-06-22T10:44:49;8.27;;;5.60;;
15246;SDS011;7726;48.820;9.248;2023-06-22T10:47:16;8.98;;;5.25;;
15246;SDS011;7726;48.820;9.248;2023-06-22T10:49:43;9.40;;;5.50;;
15246;SDS011;7726;48.820;9.248;2023-06-22T10:52:11;10.25;;;5.50;;
15246;SDS011;7726;48.820;9.248;2023-06-22T10:54:38;9.15;;;5.90;;
15246;SDS011;7726;48.820;9.248;2023-06-22T10:57:05;10.20;;;4.93;;
15246;SDS011;7726;48.820;9.248;2023-06-22T10:59:34;10.07;;;5.55;;
15246;SDS011;7726;48.820;9.248;2023-06-22T11:02:01;9.82;;;6.07;;
15246;SDS011;7726;48.820;9.248;2023-06-22T11:04:28;8.00;;;5.65;;
15246;SDS011;7726;48.820;9.248;2023-06-22T11:06:55;7.13;;;5.18;;
15246;SDS011;7726;48.820;9.248;2023-06-22T11:09:22;10.02;;;4.97;;
15246;SDS011;7726;48.820;9.248;2023-06-22T11:11:50;10.07;;;5.60;;
15246;SDS011;7726;48.820;9.248;2023-06-22T11:14:18;6.70;;;5.43;;
15246;SDS011;7726;48.820;9.248;2023-06-22T11:16:46;6.68;;;4.97;;
15246;SDS011;7726;48.820;9.248;2023-06-22T11:19:14;10.05;;;5.90;;
15246;SDS011;7726;48.820;9.248;2023-06-22T11:21:41;8.60;;;5.40;;
15246;SDS011;7726;48.820;9.248;2023-06-22T11:24:08;9.68;;;5.40;;
15246;SDS011;7726;48.820;9.248;2023-06-22T11:26:35;7.07;;;4.75;;
15246;SDS011;7726;48.820;9.248;2023-06-22T11:29:02;9.55;;;4.90;;
15246;SDS011;7726;48.820;9.248;2023-06-22T11:31:30;10.05;;;5.93;;
15246;SDS011;7726;48.820;9.248;2023-06-22T11:33:59;7.18;;;4.75;;
15246;SDS011;7726;48.820;9.248;2023-06-22T11:36:26;10.30;;;4.95;;
15246;SDS011;7726;48.820;9.248;2023-06-22T11:38:54;9.05;;;5.20;;
15246;SDS011;7726;48.820;9.248;2023-06-22T11:41:21;12.10;;;4.90;;
15246;SDS011;7726;48.820;9.248;2023-06-22T11:43:48;7.25;;;4.82;;
15246;SDS011;7726;48.820;9.248;2023-06-22T11:46:15;7.70;;;4.90;;
15246;SDS011;7726;48.820;9.248;2023-06-22T11:48:42;10.80;;;5.60;;
15246;SDS011;7726;48.820;9.248;2023-06-22T11:51:12;13.15;;;5.60;;
15246;SDS011;7726;48.820;9.248;2023-06-22T11:53:39;8.98;;;5.15;;
15246;SDS011;7726;48.820;9.248;2023-06-22T11:56:06;11.93;;;5.78;;
15246;SDS011;7726;48.820;9.248;2023-06-22T11:58:33;7.80;;;5.47;;
15246;SDS011;7726;48.820;9.248;2023-06-22T12:01:00;11.82;;;5.57;;
15246;SDS011;7726;48.820;9.248;2023-06-22T12:03:27;6.68;;;5.20;;
15246;SDS011;7726;48.820;9.248;2023-06-22T12:05:55;12.30;;;5.93;;
15246;SDS011;7726;48.820;9.248;2023-06-22T12:08:23;8.93;;;5.82;;
15246;SDS011;7726;48.820;9.248;2023-06-22T12:10:50;8.43;;;5.57;;
15246;SDS011;7726;48.820;9.248;2023-06-22T12:13:18;7.82;;;5.55;;
15246;SDS011;7726;48.820;9.248;2023-06-22T12:15:46;9.40;;;5.18;;
15246;SDS011;7726;48.820;9.248;2023-06-22T12:18:13;10.75;;;5.63;;
15246;SDS011;7726;48.820;9.248;2023-06-22T12:20:40;8.10;;;5.63;;
15246;SDS011;7726;48.820;9.248;2023-06-22T12:23:07;13.50;;;5.68;;
15246;SDS011;7726;48.820;9.248;2023-06-22T12:25:36;11.50;;;5.57;;
15246;SDS011;7726;48.820;9.248;2023-06-22T12:28:03;13.77;;;6.43;;
15246;SDS011;7726;48.820;9.248;2023-06-22T12:30:32;11.63;;;5.93;;
15246;SDS011;7726;48.820;9.248;2023-06-22T12:32:59;8.80;;;5.53;;
15246;SDS011;7726;48.820;9.248;2023-06-22T12:35:26;8.43;;;5.47;;
15246;SDS011;7726;48.820;9.248;2023-06-22T12:37:53;16.88;;;5.97;;
15246;SDS011;7726;48.820;9.248;2023-06-22T12:40:20;9.70;;;5.55;;
15246;SDS011;7726;48.820;9.248;2023-06-22T12:42:49;11.15;;;5.88;;
15246;SDS011;7726;48.820;9.248;2023-06-22T12:45:16;9.50;;;6.60;;
15246;SDS011;7726;48.820;9.248;2023-06-22T12:47:44;12.43;;;6.28;;
15246;SDS011;7726;48.820;9.248;2023-06-22T12:50:12;12.75;;;6.03;;
15246;SDS011;7726;48.820;9.248;2023-06-22T12:52:39;11.27;;;5.53;;
15246;SDS011;7726;48.820;9.248;2023-06-22T12:55:06;10.05;;;5.90;;
15246;SDS011;7726;48.820;9.248;2023-06-22T12:57:34;12.80;;;6.50;;
15246;SDS011;7726;48.820;9.248;2023-06-22T13:00:02;10.90;;;5.93;;
15246;SDS011;7726;48.820;9.248;2023-06-22T13:02:30;11.40;;;6.18;;
15246;SDS011;7726;48.820;9.248;2023-06-22T13:04:57;9.35;;;6.10;;
15246;SDS011;7726;48.820;9.248;2023-06-22T13:07:24;11.02;;;5.80;;
15246;SDS011;7726;48.820;9.248;2023-06-22T13:09:51;10.30;;;5.70;;
15246;SDS011;7726;48.820;9.248;2023-06-22T13:12:19;11.73;;;5.90;;
15246;SDS011;7726;48.820;9.248;2023-06-22T13:14:46;12.93;;;6.07;;
15246;SDS011;7726;48.820;9.248;2023-06-22T13:17:15;12.38;;;5.75;;
15246;SDS011;7726;48.820;9.248;2023-06-22T13:19:42;11.45;;;5.88;;
15246;SDS011;7726;48.820;9.248;2023-06-22T13:22:25;9.10;;;5.78;;
15246;SDS011;7726;48.820;9.248;2023-06-22T13:24:52;15.02;;;5.43;;
15246;SDS011;7726;48.820;9.248;2023-06-22T13:27:20;10.02;;;5.82;;
15246;SDS011;7726;48.820;9.248;2023-06-22T13:29:47;14.30;;;5.78;;
15246;SDS011;7726;48.820;9.248;2023-06-22T13:32:15;9.38;;;5.70;;
15246;SDS011;7726;48.820;9.248;2023-06-22T13:34:43;10.20;;;5.68;;
15246;SDS011;7726;48.820;9.248;2023-06-22T13:37:10;12.70;;;5.75;;
15246;SDS011;7726;48.820;9.248;2023-06-22T13:39:37;8.15;;;4.95;;
15246;SDS011;7726;48.820;9.248;2023-06-22T13:42:04;8.80;;;5.32;;
15246;SDS011;7726;48.820;9.248;2023-06-22T13:44:32;11.73;;;5.65;;
15246;SDS011;7726;48.820;9.248;2023-06-22T13:46:59;9.68;;;5.13;;
15246;SDS011;7726;48.820;9.248;2023-06-22T13:49:27;11.52;;;6.35;;
15246;SDS011;7726;48.820;9.248;2023-06-22T13:51:54;10.05;;;5.65;;
15246;SDS011;7726;48.820;9.248;2023-06-22T13:54:22;9.05;;;5.47;;
15246;SDS011;7726;48.820;9.248;2023-06-22T13:56:49;12.23;;;5.47;;
15246;SDS011;7726;48.820;9.248;2023-06-22T13:59:16;11.82;;;5.38;;
15246;SDS011;7726;48.820;9.248;2023-06-22T14:01:43;14.13;;;5.90;;
15246;SDS011;7726;48.820;9.248;2023-06-22T14:04:10;10.80;;;5.78;;
15246;SDS011;7726;48.820;9.248;2023-06-22T14:06:39;8.15;;;5.55;;
15246;SDS011;7726;48.820;9.248;2023-06-22T14:09:06;9.82;;;5.68;;
15246;SDS011;7726;48.820;9.248;2023-06-22T14:11:33;12.10;;;6.10;;
15246;SDS011;7726;48.820;9.248;2023-06-22T14:14:00;10.07;;;5.40;;
15246;SDS011;7726;48.820;9.248;2023-06-22T14:16:27;10.55;;;5.85;;
15246;SDS011;7726;48.820;9.248;2023-06-22T14:18:55;10.52;;;5.70;;
15246;SDS011;7726;48.820;9.248;2023-06-22T14:21:22;9.10;;;5.45;;
15246;SDS011;7726;48.820;9.248;2023-06-22T14:23:50;13.07;;;5.55;;
15246;SDS011;7726;48.820;9.248;2023-06-22T14:26:17;9.90;;;5.22;;
15246;SDS011;7726;48.820;9.248;2023-06-22T14:28:44;12.55;;;5.70;;
15246;SDS011;7726;48.820;9.248;2023-06-22T14:31:13;11.32;;;5.15;;
15246;SDS011;7726;48.820;9.248;2023-06-22T14:33:40;7.45;;;4.80;;
15246;SDS011;7726;48.820;9.248;2023-06-22T14:36:08;11.43;;;5.15;;
15246;SDS011;7726;48.820;9.248;2023-06-22T14:38:35;11.18;;;5.38;;
15246;SDS011;7726;48.820;9.248;2023-06-22T14:41:03;8.68;;;4.82;;
15246;SDS011;7726;48.820;9.248;2023-06-22T14:43:30;9.88;;;5.15;;
15246;SDS011;7726;48.820;9.248;2023-06-22T14:45:57;8.93;;;4.97;;
15246;SDS011;7726;48.820;9.248;2023-06-22T14:48:25;8.10;;;4.60;;
15246;SDS011;7726;48.820;9.248;2023-06-22T14:50:52;8.48;;;5.57;;
15246;SDS011;7726;48.820;9.248;2023-06-22T14:53:20;9.10;;;5.15;;
15246;SDS011;7726;48.820;9.248;2023-06-22T14:55:48;9.55;;;5.13;;
15246;SDS011;7726;48.820;9.248;2023-06-22T14:58:16;8.77;;;4.93;;